Time;durP1;ratioP1;P1;durP2;ratioP2;P2;SDS_P1;SDS_P2;PMS_P1;PMS_P2;Temp;Humidity;BMP_temperature;BMP_pressure;BME280_temperature;BME280_humidity;BME280_pressure;Samples;Min_cycle;Max_cycle;Signal;HPM_P1;HPM_P2
2023/07/07 00:00:55;;;;;;;4.45;2.90;;;;;;;;;;5018558;28;20085;-84
2023/07/07 00:03:20;;;;;;;4.85;3.00;;;;;;;;;;5021815;28;20042;-85
2023/07/07 00:05:47;;;;;;;4.90;2.92;;;;;;;;;;5017639;28;20033;-84
2023/07/07 00:08:13;;;;;;;5.68;2.70;;;;;;;;;;5013672;28;20040;-84
2023/07/07 00:10:38;;;;;;;4.13;2.80;;;;;;;;;;5022813;28;20034;-84
2023/07/07 00:13:04;;;;;;;4.78;3.05;;;;;;;;;;5019764;28;20069;-84
2023/07/07 00:15:29;;;;;;;4.75;2.75;;;;;;;;;;5016317;28;20385;-83
2023/07/07 00:17:55;;;;;;;7.38;3.03;;;;;;;;;;5021528;28;20141;-83
2023/07/07 00:20:21;;;;;;;5.47;2.88;;;;;;;;;;5012408;28;20050;-84
2023/07/07 00:22:47;;;;;;;7.07;3.10;;;;;;;;;;5016369;28;20092;-83
2023/07/07 00:25:13;;;;;;;4.97;3.03;;;;;;;;;;5021061;28;20044;-84
2023/07/07 00:27:39;;;;;;;6.00;2.95;;;;;;;;;;4996453;28;20033;-84
2023/07/07 00:30:06;;;;;;;4.97;3.05;;;;;;;;;;5014878;28;20052;-83
2023/07/07 00:32:33;;;;;;;5.60;3.13;;;;;;;;;;5018966;28;20026;-84
2023/07/07 00:34:59;;;;;;;4.18;2.60;;;;;;;;;;5005514;28;20038;-84
2023/07/07 00:37:24;;;;;;;5.75;2.90;;;;;;;;;;5003841;28;20064;-84
2023/07/07 00:39:50;;;;;;;4.18;2.92;;;;;;;;;;5015592;28;20041;-84
2023/07/07 00:42:16;;;;;;;4.43;2.80;;;;;;;;;;5004893;28;20056;-84
2023/07/07 00:45:13;;;;;;;5.00;3.00;;;;;;;;;;5003499;28;20587;-84
2023/07/07 00:47:54;;;;;;;5.88;3.00;;;;;;;;;;5003524;28;20036;-84
2023/07/07 00:50:23;;;;;;;5.22;3.17;;;;;;;;;;5020093;28;20506;-84
2023/07/07 00:52:48;;;;;;;5.10;2.72;;;;;;;;;;5003981;28;20022;-84
2023/07/07 00:55:20;;;;;;;5.43;3.00;;;;;;;;;;5005462;28;20052;-83
2023/07/07 00:57:46;;;;;;;5.30;3.08;;;;;;;;;;5009467;28;20044;-83
2023/07/07 01:00:12;;;;;;;4.30;2.80;;;;;;;;;;5012711;28;20022;-84
2023/07/07 01:02:38;;;;;;;4.97;2.80;;;;;;;;;;5017953;28;20041;-84
2023/07/07 01:05:05;;;;;;;5.88;2.83;;;;;;;;;;4989986;28;20045;-84
2023/07/07 01:07:37;;;;;;;6.30;3.10;;;;;;;;;;5007169;28;20041;-84
2023/07/07 01:10:04;;;;;;;4.85;3.00;;;;;;;;;;5000829;28;20038;-84
2023/07/07 01:12:30;;;;;;;7.30;3.00;;;;;;;;;;5016254;28;20048;-84
2023/07/07 01:14:56;;;;;;;4.85;3.00;;;;;;;;;;5003909;28;20042;-84
2023/07/07 01:18:14;;;;;;;4.25;3.08;;;;;;;;;;5014704;28;20132;-84
2023/07/07 01:21:02;;;;;;;4.50;2.85;;;;;;;;;;4983405;28;20093;-84
2023/07/07 01:23:57;;;;;;;5.82;2.88;;;;;;;;;;4983321;28;20042;-83
2023/07/07 01:26:41;;;;;;;4.93;2.85;;;;;;;;;;4982379;28;20050;-84
2023/07/07 01:29:22;;;;;;;6.28;2.97;;;;;;;;;;5015735;28;20042;-84
2023/07/07 01:31:50;;;;;;;6.18;3.08;;;;;;;;;;5012367;28;20116;-83
2023/07/07 01:34:16;;;;;;;4.45;2.92;;;;;;;;;;5015918;28;20080;-84
2023/07/07 01:36:42;;;;;;;5.88;2.90;;;;;;;;;;5018643;28;20410;-84
2023/07/07 01:39:10;;;;;;;8.35;2.90;;;;;;;;;;5021949;28;20029;-84
2023/07/07 01:41:57;;;;;;;6.78;3.00;;;;;;;;;;5006990;28;20041;-83
2023/07/07 01:44:50;;;;;;;5.57;2.97;;;;;;;;;;5016527;28;20523;-84
2023/07/07 01:47:19;;;;;;;4.97;3.13;;;;;;;;;;5015950;28;20064;-84
2023/07/07 01:49:48;;;;;;;4.90;3.08;;;;;;;;;;4997308;28;20072;-84
2023/07/07 01:52:31;;;;;;;3.95;2.72;;;;;;;;;;5017537;28;20045;-84
2023/07/07 01:55:01;;;;;;;5.15;2.97;;;;;;;;;;5020586;28;20025;-84
2023/07/07 01:57:28;;;;;;;4.20;2.72;;;;;;;;;;5011297;28;20033;-83
2023/07/07 01:59:55;;;;;;;5.22;2.70;;;;;;;;;;5010843;28;20026;-84
2023/07/07 02:02:22;;;;;;;5.47;3.05;;;;;;;;;;4995490;28;20057;-84
2023/07/07 02:04:47;;;;;;;4.32;3.20;;;;;;;;;;4996825;28;20053;-84
2023/07/07 02:07:13;;;;;;;5.18;2.67;;;;;;;;;;4999535;28;20155;-83
2023/07/07 02:09:39;;;;;;;6.10;3.05;;;;;;;;;;5019263;28;20488;-84
2023/07/07 02:12:06;;;;;;;4.68;2.78;;;;;;;;;;5023682;28;20041;-84
2023/07/07 02:14:32;;;;;;;8.50;3.05;;;;;;;;;;5009387;28;20037;-84
2023/07/07 02:16:57;;;;;;;4.95;2.75;;;;;;;;;;4996226;28;20045;-83
2023/07/07 02:19:22;;;;;;;4.45;3.00;;;;;;;;;;5013043;28;20045;-84
2023/07/07 02:21:48;;;;;;;5.20;3.20;;;;;;;;;;5015683;28;20046;-84
2023/07/07 02:24:13;;;;;;;5.57;2.92;;;;;;;;;;5017865;28;20866;-84
2023/07/07 02:26:39;;;;;;;5.47;2.70;;;;;;;;;;5020747;28;20073;-84
2023/07/07 02:29:04;;;;;;;6.22;3.17;;;;;;;;;;5009580;28;20092;-84
2023/07/07 02:31:30;;;;;;;6.43;3.30;;;;;;;;;;5010282;28;20049;-83
2023/07/07 02:33:55;;;;;;;5.80;2.75;;;;;;;;;;5012621;28;20038;-84
2023/07/07 02:36:21;;;;;;;6.68;3.00;;;;;;;;;;5013578;28;20048;-84
2023/07/07 02:38:46;;;;;;;5.00;3.38;;;;;;;;;;5002192;28;20117;-84
2023/07/07 02:41:12;;;;;;;4.70;3.08;;;;;;;;;;5020446;28;20033;-84
2023/07/07 02:43:38;;;;;;;4.22;2.90;;;;;;;;;;5005363;28;20029;-84
2023/07/07 02:46:04;;;;;;;5.05;3.10;;;;;;;;;;5026498;28;20030;-84
2023/07/07 02:48:29;;;;;;;6.28;2.92;;;;;;;;;;5021344;28;20392;-82
2023/07/07 02:51:00;;;;;;;3.95;2.90;;;;;;;;;;5004270;28;20042;-84
2023/07/07 02:53:28;;;;;;;5.40;3.03;;;;;;;;;;5014954;28;20034;-86
2023/07/07 02:55:54;;;;;;;5.00;2.80;;;;;;;;;;5002488;28;20025;-83
2023/07/07 02:58:20;;;;;;;4.90;3.00;;;;;;;;;;5004028;28;20034;-83
2023/07/07 03:00:46;;;;;;;4.72;3.03;;;;;;;;;;5012133;28;20030;-83
2023/07/07 03:03:12;;;;;;;4.90;3.30;;;;;;;;;;5013016;28;20094;-83
2023/07/07 03:05:38;;;;;;;6.75;3.05;;;;;;;;;;5016376;28;20057;-83
2023/07/07 03:08:03;;;;;;;6.93;2.90;;;;;;;;;;5010184;28;20040;-83
2023/07/07 03:10:35;;;;;;;6.65;3.28;;;;;;;;;;4982595;28;20124;-83
2023/07/07 03:13:02;;;;;;;5.55;3.03;;;;;;;;;;5002207;28;20045;-84
2023/07/07 03:15:39;;;;;;;4.60;2.97;;;;;;;;;;5010840;28;20033;-83
2023/07/07 03:18:09;;;;;;;7.70;3.20;;;;;;;;;;5024223;28;20419;-84
2023/07/07 03:20:37;;;;;;;5.32;3.15;;;;;;;;;;5042636;22;20053;-81
2023/07/07 03:23:08;;;;;;;6.30;3.17;;;;;;;;;;4977685;28;20041;-82
2023/07/07 03:25:33;;;;;;;4.90;3.05;;;;;;;;;;4984395;28;20034;-82
2023/07/07 03:28:00;;;;;;;5.55;3.00;;;;;;;;;;5003984;28;20100;-83
2023/07/07 03:30:36;;;;;;;;;;;;;;;;;;5007556;28;20042;-83
2023/07/07 03:33:14;;;;;;;5.53;3.08;;;;;;;;;;4993296;28;19914;-83
2023/07/07 03:35:42;;;;;;;6.22;3.25;;;;;;;;;;4996436;28;20034;-83
2023/07/07 03:38:09;;;;;;;6.75;3.00;;;;;;;;;;4971764;28;20030;-83
2023/07/07 03:40:34;;;;;;;6.18;3.10;;;;;;;;;;4999213;28;20107;-82
2023/07/07 03:43:00;;;;;;;4.40;2.83;;;;;;;;;;4986493;28;20029;-82
2023/07/07 03:45:27;;;;;;;4.90;2.97;;;;;;;;;;4975783;28;20058;-80
2023/07/07 03:47:56;;;;;;;4.72;3.03;;;;;;;;;;4995902;28;20037;-80
2023/07/07 03:50:23;;;;;;;8.43;3.20;;;;;;;;;;5010411;28;20030;-80
2023/07/07 03:52:50;;;;;;;4.97;2.95;;;;;;;;;;4997863;28;20045;-80
2023/07/07 03:55:16;;;;;;;4.43;3.13;;;;;;;;;;4994995;28;20042;-80
2023/07/07 03:57:41;;;;;;;6.10;2.88;;;;;;;;;;5002109;28;20065;-80
2023/07/07 04:00:07;;;;;;;5.05;3.15;;;;;;;;;;5004989;28;20117;-81
2023/07/07 04:02:43;;;;;;;5.65;3.22;;;;;;;;;;5008649;28;20049;-80
2023/07/07 04:05:10;;;;;;;5.38;3.10;;;;;;;;;;4994227;28;20034;-80
2023/07/07 04:07:35;;;;;;;5.78;3.78;;;;;;;;;;4997185;28;20129;-81
2023/07/07 04:10:03;;;;;;;5.45;3.28;;;;;;;;;;4980205;28;20124;-81
2023/07/07 04:12:29;;;;;;;7.55;3.30;;;;;;;;;;5013912;28;20043;-80
2023/07/07 04:14:54;;;;;;;4.72;3.10;;;;;;;;;;5005497;28;20037;-80
2023/07/07 04:17:20;;;;;;;5.32;2.97;;;;;;;;;;5010297;28;20053;-81
2023/07/07 04:19:45;;;;;;;4.47;2.95;;;;;;;;;;4995296;28;20056;-80
2023/07/07 04:22:11;;;;;;;4.95;2.92;;;;;;;;;;5017400;28;20216;-81
2023/07/07 04:24:36;;;;;;;5.75;3.30;;;;;;;;;;4996978;28;20128;-82
2023/07/07 04:27:02;;;;;;;5.75;3.30;;;;;;;;;;4999241;28;20412;-81
2023/07/07 04:29:28;;;;;;;4.60;3.00;;;;;;;;;;5005350;28;20029;-81
2023/07/07 04:31:53;;;;;;;7.82;3.30;;;;;;;;;;5010314;28;20393;-82
2023/07/07 04:34:19;;;;;;;4.90;2.95;;;;;;;;;;4994454;28;20042;-83
2023/07/07 04:36:44;;;;;;;4.97;3.28;;;;;;;;;;5014825;28;20476;-83
2023/07/07 04:39:10;;;;;;;4.78;2.97;;;;;;;;;;5015624;28;20103;-83
2023/07/07 04:41:35;;;;;;;6.45;3.17;;;;;;;;;;5001029;28;20041;-82
2023/07/07 04:44:01;;;;;;;4.80;2.88;;;;;;;;;;5000113;28;20895;-83
2023/07/07 04:46:29;;;;;;;5.35;3.00;;;;;;;;;;5010864;28;20045;-82
2023/07/07 04:48:54;;;;;;;4.95;3.00;;;;;;;;;;5010988;28;20046;-81
2023/07/07 04:51:20;;;;;;;5.15;3.10;;;;;;;;;;5013016;28;20045;-81
2023/07/07 04:53:46;;;;;;;4.93;3.03;;;;;;;;;;4997901;28;20041;-84
2023/07/07 04:56:15;;;;;;;7.88;3.40;;;;;;;;;;5016197;28;20164;-84
2023/07/07 04:58:42;;;;;;;5.43;2.97;;;;;;;;;;5016543;28;20038;-81
2023/07/07 05:01:12;;;;;;;5.03;2.95;;;;;;;;;;5008264;28;20738;-82
2023/07/07 05:03:40;;;;;;;4.85;3.10;;;;;;;;;;5009402;28;20041;-83
2023/07/07 05:06:06;;;;;;;5.03;3.13;;;;;;;;;;5012219;28;20502;-81
2023/07/07 05:08:32;;;;;;;5.05;3.17;;;;;;;;;;5015850;28;20046;-81
2023/07/07 05:10:58;;;;;;;6.57;3.15;;;;;;;;;;4996999;28;20036;-83
2023/07/07 05:13:25;;;;;;;6.35;3.25;;;;;;;;;;5012393;28;20129;-82
2023/07/07 05:15:57;;;;;;;5.82;3.10;;;;;;;;;;5014913;28;20038;-82
2023/07/07 05:18:23;;;;;;;5.53;2.95;;;;;;;;;;4990658;28;20042;-82
2023/07/07 05:20:48;;;;;;;7.22;3.03;;;;;;;;;;5010292;28;20026;-81
2023/07/07 05:23:13;;;;;;;4.47;2.92;;;;;;;;;;5011704;28;20117;-81
2023/07/07 05:25:39;;;;;;;5.95;3.13;;;;;;;;;;5015609;28;20034;-80
2023/07/07 05:28:04;;;;;;;4.97;2.92;;;;;;;;;;5015361;28;20026;-80
2023/07/07 05:30:30;;;;;;;5.05;3.17;;;;;;;;;;5008582;28;20359;-82
2023/07/07 05:32:55;;;;;;;5.50;2.90;;;;;;;;;;5008708;28;20127;-82
2023/07/07 05:35:20;;;;;;;4.68;3.00;;;;;;;;;;5011295;28;20030;-83
2023/07/07 05:37:46;;;;;;;4.57;2.90;;;;;;;;;;5012266;28;20041;-85
2023/07/07 05:40:11;;;;;;;5.25;3.28;;;;;;;;;;5015746;28;20042;-82
2023/07/07 05:42:37;;;;;;;6.30;3.17;;;;;;;;;;5016316;28;20033;-84
2023/07/07 05:45:02;;;;;;;6.03;3.08;;;;;;;;;;5019518;28;20022;-83
2023/07/07 05:47:28;;;;;;;4.60;2.85;;;;;;;;;;4984673;28;20475;-82
2023/07/07 05:49:53;;;;;;;4.97;3.15;;;;;;;;;;5005491;28;20508;-82
2023/07/07 05:52:19;;;;;;;8.93;3.20;;;;;;;;;;5007742;28;20037;-84
2023/07/07 05:54:44;;;;;;;4.97;3.40;;;;;;;;;;5000262;28;20034;-85
2023/07/07 05:57:10;;;;;;;5.20;3.13;;;;;;;;;;5012669;28;20066;-83
2023/07/07 05:59:35;;;;;;;4.85;2.92;;;;;;;;;;4996515;28;20080;-86
2023/07/07 06:02:01;;;;;;;5.55;3.22;;;;;;;;;;4994183;28;20502;-84
2023/07/07 06:04:26;;;;;;;7.20;3.22;;;;;;;;;;4985607;28;20049;-83
2023/07/07 06:06:52;;;;;;;6.72;3.20;;;;;;;;;;5005647;28;20076;-81
2023/07/07 06:09:18;;;;;;;4.85;3.15;;;;;;;;;;5008343;28;20034;-82
2023/07/07 06:11:43;;;;;;;7.07;3.20;;;;;;;;;;5008287;28;20108;-82
2023/07/07 06:14:08;;;;;;;6.30;3.20;;;;;;;;;;5012757;28;20489;-83
2023/07/07 06:16:34;;;;;;;4.88;3.10;;;;;;;;;;5011197;28;20439;-84
2023/07/07 06:18:59;;;;;;;6.10;3.20;;;;;;;;;;5010300;28;20454;-83
2023/07/07 06:21:25;;;;;;;4.95;2.88;;;;;;;;;;5008213;28;20499;-82
2023/07/07 06:23:50;;;;;;;4.53;3.20;;;;;;;;;;5004384;28;20038;-83
2023/07/07 06:26:15;;;;;;;5.25;3.00;;;;;;;;;;5014226;28;20017;-84
2023/07/07 06:28:41;;;;;;;7.28;3.33;;;;;;;;;;5016195;28;20038;-83
2023/07/07 06:31:06;;;;;;;4.18;2.70;;;;;;;;;;5013093;28;20022;-83
2023/07/07 06:33:32;;;;;;;5.32;3.08;;;;;;;;;;5015685;28;20488;-82
2023/07/07 06:35:57;;;;;;;5.57;3.00;;;;;;;;;;5008184;28;20031;-83
2023/07/07 06:38:23;;;;;;;6.43;3.22;;;;;;;;;;5003477;28;20046;-84
2023/07/07 06:40:49;;;;;;;5.80;3.05;;;;;;;;;;5009688;28;20079;-83
2023/07/07 06:43:18;;;;;;;8.35;3.15;;;;;;;;;;5013689;28;20121;-84
2023/07/07 06:45:46;;;;;;;5.03;3.22;;;;;;;;;;5015529;28;20040;-83
2023/07/07 06:48:11;;;;;;;6.55;3.30;;;;;;;;;;4991422;28;20022;-82
2023/07/07 06:50:40;;;;;;;5.35;3.25;;;;;;;;;;5015731;28;20480;-82
2023/07/07 06:53:05;;;;;;;6.00;3.10;;;;;;;;;;5006450;28;20124;-82
2023/07/07 06:55:31;;;;;;;6.50;3.30;;;;;;;;;;4990707;28;20070;-82
2023/07/07 06:57:56;;;;;;;4.53;2.85;;;;;;;;;;4977758;28;20042;-82
2023/07/07 07:00:22;;;;;;;6.30;3.35;;;;;;;;;;5015849;28;20038;-82
2023/07/07 07:02:48;;;;;;;4.85;3.10;;;;;;;;;;5014220;28;20516;-82
2023/07/07 07:05:13;;;;;;;4.80;3.40;;;;;;;;;;5014531;28;20041;-84
2023/07/07 07:07:39;;;;;;;5.22;3.03;;;;;;;;;;5013900;28;20045;-83
2023/07/07 07:10:06;;;;;;;6.63;3.30;;;;;;;;;;4989496;28;20411;-84
2023/07/07 07:12:31;;;;;;;7.15;3.50;;;;;;;;;;5011527;28;20091;-83
2023/07/07 07:14:57;;;;;;;5.43;3.10;;;;;;;;;;5015172;28;20041;-84
2023/07/07 07:17:23;;;;;;;4.22;3.17;;;;;;;;;;5007089;28;20062;-84
2023/07/07 07:19:49;;;;;;;4.82;3.22;;;;;;;;;;5011433;28;20484;-84
2023/07/07 07:22:15;;;;;;;5.65;2.95;;;;;;;;;;5015957;28;20087;-84
2023/07/07 07:24:41;;;;;;;5.15;3.15;;;;;;;;;;5016200;28;20404;-84
2023/07/07 07:27:06;;;;;;;4.45;3.33;;;;;;;;;;5016606;28;20057;-84
2023/07/07 07:29:32;;;;;;;4.93;3.25;;;;;;;;;;5018265;28;20042;-84
2023/07/07 07:31:57;;;;;;;5.97;3.20;;;;;;;;;;5017868;28;20030;-84
2023/07/07 07:34:26;;;;;;;6.00;3.28;;;;;;;;;;5015218;28;20508;-85
2023/07/07 07:36:52;;;;;;;4.50;3.20;;;;;;;;;;5018134;28;20068;-85
2023/07/07 07:39:18;;;;;;;4.70;3.10;;;;;;;;;;5021261;28;20037;-84
2023/07/07 07:41:48;;;;;;;4.32;3.38;;;;;;;;;;5016860;28;20049;-84
2023/07/07 07:44:16;;;;;;;4.30;3.15;;;;;;;;;;5020857;28;20610;-84
2023/07/07 07:46:43;;;;;;;4.53;3.00;;;;;;;;;;4983584;28;20026;-84
2023/07/07 07:49:09;;;;;;;4.40;3.30;;;;;;;;;;5009276;28;20034;-84
2023/07/07 07:51:38;;;;;;;6.55;3.10;;;;;;;;;;5013155;28;20555;-84
2023/07/07 07:54:08;;;;;;;6.70;3.20;;;;;;;;;;5024381;28;20042;-84
2023/07/07 07:56:34;;;;;;;4.82;2.90;;;;;;;;;;5022181;28;20058;-84
2023/07/07 07:59:00;;;;;;;5.43;3.20;;;;;;;;;;5018349;28;20132;-84
2023/07/07 08:01:26;;;;;;;7.20;3.70;;;;;;;;;;5020058;28;20042;-85
2023/07/07 08:03:52;;;;;;;5.03;3.40;;;;;;;;;;5011184;28;20103;-84
2023/07/07 08:06:18;;;;;;;6.70;3.50;;;;;;;;;;5014274;28;20042;-84
2023/07/07 08:08:43;;;;;;;5.13;3.40;;;;;;;;;;5011227;28;20048;-85
2023/07/07 08:11:14;;;;;;;5.80;3.63;;;;;;;;;;5019024;28;20042;-85
2023/07/07 08:13:39;;;;;;;8.30;3.95;;;;;;;;;;5002183;28;20053;-85
2023/07/07 08:16:04;;;;;;;5.38;3.50;;;;;;;;;;5014788;28;20029;-84
2023/07/07 08:18:30;;;;;;;6.88;3.53;;;;;;;;;;5018104;28;20039;-84
2023/07/07 08:20:55;;;;;;;4.88;3.60;;;;;;;;;;4991197;28;20412;-85
2023/07/07 08:23:21;;;;;;;7.63;3.80;;;;;;;;;;5003488;28;20048;-84
2023/07/07 08:25:46;;;;;;;6.40;3.75;;;;;;;;;;5015609;28;20037;-84
2023/07/07 08:28:12;;;;;;;5.20;3.65;;;;;;;;;;5018762;28;20475;-84
2023/07/07 08:30:38;;;;;;;5.95;3.70;;;;;;;;;;5000038;28;20081;-87
2023/07/07 08:33:03;;;;;;;5.20;3.78;;;;;;;;;;5017090;28;20038;-84
2023/07/07 08:35:29;;;;;;;5.50;3.83;;;;;;;;;;4991357;28;20065;-86
2023/07/07 08:37:54;;;;;;;5.97;3.97;;;;;;;;;;5009138;28;20403;-86
2023/07/07 08:40:23;;;;;;;6.63;3.72;;;;;;;;;;5012416;28;20060;-84
2023/07/07 08:42:48;;;;;;;6.97;4.03;;;;;;;;;;5002018;28;20038;-84
2023/07/07 08:45:20;;;;;;;7.63;3.70;;;;;;;;;;5018633;28;20041;-83
2023/07/07 08:47:56;;;;;;;4.88;3.55;;;;;;;;;;4996573;28;20661;-84
2023/07/07 08:50:24;;;;;;;4.68;3.60;;;;;;;;;;5009880;28;20030;-84
2023/07/07 08:53:15;;;;;;;5.20;3.47;;;;;;;;;;5005208;28;20085;-84
2023/07/07 08:55:41;;;;;;;6.53;3.70;;;;;;;;;;5010454;28;20037;-84
2023/07/07 08:58:28;;;;;;;5.57;4.00;;;;;;;;;;5012852;28;20057;-85
2023/07/07 09:01:13;;;;;;;7.63;3.80;;;;;;;;;;4978471;28;20065;-84
2023/07/07 09:03:47;;;;;;;6.68;3.85;;;;;;;;;;4986221;28;20125;-84
2023/07/07 09:06:45;;;;;;;5.97;3.83;;;;;;;;;;5009548;28;20042;-85
2023/07/07 09:09:16;;;;;;;7.45;3.83;;;;;;;;;;5007637;28;20038;-84
2023/07/07 09:12:05;;;;;;;5.47;3.53;;;;;;;;;;5009533;28;20121;-85
2023/07/07 09:14:31;;;;;;;5.22;4.07;;;;;;;;;;5012459;28;20041;-84
2023/07/07 09:17:00;;;;;;;7.22;3.80;;;;;;;;;;5017066;28;20029;-86
2023/07/07 09:19:30;;;;;;;5.70;3.90;;;;;;;;;;5017510;28;20109;-86
2023/07/07 09:22:01;;;;;;;5.03;3.65;;;;;;;;;;4986897;28;20045;-86
2023/07/07 09:24:36;;;;;;;5.40;4.07;;;;;;;;;;5004308;28;20095;-87
2023/07/07 09:27:16;;;;;;;7.28;4.03;;;;;;;;;;5008034;28;20086;-86
2023/07/07 09:29:42;;;;;;;9.07;4.57;;;;;;;;;;5008518;28;20121;-86
2023/07/07 09:32:11;;;;;;;8.30;3.78;;;;;;;;;;5014760;28;20046;-86
2023/07/07 09:34:37;;;;;;;5.78;3.80;;;;;;;;;;5017068;28;20546;-87
2023/07/07 09:37:27;;;;;;;4.90;3.70;;;;;;;;;;5015208;28;20042;-86
2023/07/07 09:40:14;;;;;;;6.18;3.85;;;;;;;;;;5003856;28;20038;-85
2023/07/07 09:43:12;;;;;;;5.78;3.80;;;;;;;;;;5008567;28;20042;-86
2023/07/07 09:45:47;;;;;;;6.85;3.90;;;;;;;;;;5002276;28;20038;-85
2023/07/07 09:48:48;;;;;;;5.40;4.10;;;;;;;;;;4993813;28;20569;-86
2023/07/07 09:51:49;;;;;;;5.57;3.65;;;;;;;;;;4954954;29;20043;-86
2023/07/07 09:54:17;;;;;;;7.68;4.03;;;;;;;;;;4949797;28;20105;-86
2023/07/07 09:56:52;;;;;;;7.45;3.90;;;;;;;;;;5004894;28;20125;-87
2023/07/07 09:59:23;;;;;;;7.55;3.90;;;;;;;;;;5008895;28;20508;-85
2023/07/07 10:01:52;;;;;;;5.80;3.90;;;;;;;;;;5012654;28;20037;-86
2023/07/07 10:04:19;;;;;;;5.43;3.88;;;;;;;;;;5013385;28;20042;-85
2023/07/07 10:07:01;;;;;;;6.65;3.92;;;;;;;;;;5016272;28;20060;-86
2023/07/07 10:09:28;;;;;;;4.93;3.83;;;;;;;;;;5002690;28;20049;-86
2023/07/07 10:11:55;;;;;;;7.07;4.20;;;;;;;;;;5002942;28;20088;-85
2023/07/07 10:14:21;;;;;;;6.57;3.72;;;;;;;;;;5007879;28;20053;-86
2023/07/07 10:17:06;;;;;;;6.13;4.18;;;;;;;;;;5014248;28;20068;-87
2023/07/07 10:19:39;;;;;;;8.43;3.90;;;;;;;;;;5017552;28;20030;-87
2023/07/07 10:22:05;;;;;;;7.40;4.13;;;;;;;;;;5017894;28;20484;-86
2023/07/07 10:24:30;;;;;;;5.70;3.72;;;;;;;;;;5014329;28;20041;-86
2023/07/07 10:26:57;;;;;;;5.20;4.00;;;;;;;;;;5007217;28;20034;-86
2023/07/07 10:29:28;;;;;;;8.68;5.00;;;;;;;;;;5010786;28;20046;-84
2023/07/07 10:31:53;;;;;;;6.88;4.20;;;;;;;;;;5013509;28;20088;-87
2023/07/07 10:34:51;;;;;;;7.22;4.05;;;;;;;;;;5015014;28;20041;-85
2023/07/07 10:37:25;;;;;;;4.97;3.70;;;;;;;;;;4996155;28;20061;-85
2023/07/07 10:39:56;;;;;;;9.05;4.10;;;;;;;;;;5020272;28;20056;-83
2023/07/07 10:42:25;;;;;;;5.63;4.20;;;;;;;;;;5001455;28;20042;-84
2023/07/07 10:45:02;;;;;;;7.80;4.00;;;;;;;;;;5002193;28;20030;-85
2023/07/07 10:47:35;;;;;;;5.65;4.22;;;;;;;;;;5005539;28;20515;-83
2023/07/07 10:50:03;;;;;;;5.70;4.10;;;;;;;;;;5008224;28;20036;-87
2023/07/07 10:52:57;;;;;;;5.40;4.07;;;;;;;;;;4993481;28;20057;-86
2023/07/07 10:55:54;;;;;;;6.55;3.88;;;;;;;;;;5014532;28;20111;-86
2023/07/07 10:58:29;;;;;;;5.97;4.13;;;;;;;;;;5005015;28;20044;-85
2023/07/07 11:01:17;;;;;;;5.15;4.05;;;;;;;;;;5005624;28;20054;-85
2023/07/07 11:04:01;;;;;;;7.53;4.03;;;;;;;;;;5009792;28;20081;-86
2023/07/07 11:06:26;;;;;;;13.82;10.25;;;;;;;;;;5012843;28;20097;-84
2023/07/07 11:09:11;;;;;;;21.30;14.25;;;;;;;;;;5016394;28;20416;-85
2023/07/07 11:11:36;;;;;;;13.27;9.25;;;;;;;;;;5001053;28;20511;-86
2023/07/07 11:14:31;;;;;;;12.93;10.23;;;;;;;;;;5013797;28;20252;-85
2023/07/07 11:17:15;;;;;;;5.85;4.50;;;;;;;;;;4949188;28;20051;-85
2023/07/07 11:20:11;;;;;;;7.85;4.60;;;;;;;;;;5009388;28;20081;-84
2023/07/07 11:22:58;;;;;;;7.70;4.50;;;;;;;;;;5011947;28;20492;-85
2023/07/07 11:25:46;;;;;;;5.53;4.13;;;;;;;;;;5019195;28;20037;-85
2023/07/07 11:28:20;;;;;;;5.15;3.90;;;;;;;;;;5018722;28;20049;-86
2023/07/07 11:30:51;;;;;;;8.43;4.00;;;;;;;;;;5013962;28;20029;-86
2023/07/07 11:33:32;;;;;;;8.50;4.07;;;;;;;;;;5009742;28;20077;-85
2023/07/07 11:36:18;;;;;;;6.00;4.05;;;;;;;;;;5013828;28;20093;-86
2023/07/07 11:39:06;;;;;;;6.72;4.20;;;;;;;;;;5016546;28;20171;-85
2023/07/07 11:41:58;;;;;;;6.03;4.10;;;;;;;;;;4998638;28;20034;-84
2023/07/07 11:44:23;;;;;;;7.03;4.25;;;;;;;;;;5018695;28;20050;-85
2023/07/07 11:47:10;;;;;;;7.35;4.53;;;;;;;;;;5020256;28;20026;-86
2023/07/07 11:50:00;;;;;;;5.65;3.90;;;;;;;;;;4989401;28;20038;-85
2023/07/07 11:52:42;;;;;;;5.72;4.35;;;;;;;;;;4997495;28;20053;-85
2023/07/07 11:55:35;;;;;;;7.38;4.40;;;;;;;;;;5018494;28;20042;-86
2023/07/07 11:58:04;;;;;;;6.25;4.47;;;;;;;;;;5000162;28;20049;-87
2023/07/07 12:00:52;;;;;;;6.15;4.32;;;;;;;;;;5017332;28;20156;-87
2023/07/07 12:03:34;;;;;;;7.72;4.78;;;;;;;;;;5001873;28;20469;-86
2023/07/07 12:06:04;;;;;;;6.47;4.43;;;;;;;;;;5008566;28;20074;-85
2023/07/07 12:08:57;;;;;;;6.25;4.18;;;;;;;;;;5013698;28;20534;-87
2023/07/07 12:11:26;;;;;;;7.78;4.63;;;;;;;;;;5018616;28;20038;-86
2023/07/07 12:14:33;;;;;;;6.75;4.30;;;;;;;;;;5017227;28;20416;-87
2023/07/07 12:16:59;;;;;;;6.30;4.60;;;;;;;;;;4941274;29;20043;-87
2023/07/07 12:19:37;;;;;;;8.60;4.70;;;;;;;;;;4955901;28;20134;-86
2023/07/07 12:22:11;;;;;;;7.43;4.53;;;;;;;;;;4992007;28;20065;-86
2023/07/07 12:24:53;;;;;;;6.20;4.45;;;;;;;;;;5012936;28;20049;-85
2023/07/07 12:27:23;;;;;;;6.00;4.70;;;;;;;;;;5018476;28;20040;-86
2023/07/07 12:29:51;;;;;;;6.90;4.45;;;;;;;;;;5016474;28;20041;-86
2023/07/07 12:32:16;;;;;;;5.90;4.88;;;;;;;;;;5003044;28;20041;-87
2023/07/07 12:34:48;;;;;;;8.25;4.75;;;;;;;;;;5016543;28;20038;-87
2023/07/07 12:37:21;;;;;;;7.30;4.60;;;;;;;;;;4995004;28;20034;-86
2023/07/07 12:39:51;;;;;;;8.38;5.13;;;;;;;;;;5013356;28;20091;-87
2023/07/07 12:42:16;;;;;;;6.85;4.95;;;;;;;;;;5016036;28;20043;-87
2023/07/07 12:44:42;;;;;;;6.95;4.95;;;;;;;;;;5000079;28;20036;-86
2023/07/07 12:47:24;;;;;;;6.07;4.72;;;;;;;;;;4995800;28;20034;-86
2023/07/07 12:50:01;;;;;;;7.93;5.20;;;;;;;;;;5015559;28;20048;-87
2023/07/07 12:52:48;;;;;;;10.30;5.15;;;;;;;;;;5014666;28;20034;-87
2023/07/07 12:55:28;;;;;;;6.38;4.75;;;;;;;;;;4991368;28;20518;-84
2023/07/07 12:58:05;;;;;;;7.03;5.05;;;;;;;;;;5015219;28;20132;-84
2023/07/07 13:00:33;;;;;;;7.05;4.82;;;;;;;;;;5015469;28;20459;-84
2023/07/07 13:03:20;;;;;;;6.88;5.00;;;;;;;;;;5006227;28;20049;-84
2023/07/07 13:05:50;;;;;;;6.85;4.85;;;;;;;;;;5011420;28;20420;-85
2023/07/07 13:08:35;;;;;;;7.22;5.35;;;;;;;;;;5013759;28;20034;-84
2023/07/07 13:11:04;;;;;;;8.90;5.05;;;;;;;;;;5008333;28;20343;-85
2023/07/07 13:13:37;;;;;;;7.88;5.15;;;;;;;;;;4995065;28;20033;-85
2023/07/07 13:16:03;;;;;;;;;;;;;;;;;;5013988;28;20606;-82
2023/07/07 13:18:29;;;;;;;7.38;5.03;;;;;;;;;;4989240;28;19920;-84
2023/07/07 13:20:56;;;;;;;6.93;5.28;;;;;;;;;;5010927;28;20037;-85
2023/07/07 13:23:31;;;;;;;8.45;5.03;;;;;;;;;;4999766;28;20048;-85
2023/07/07 13:25:56;;;;;;;8.27;5.38;;;;;;;;;;5013865;28;20065;-85
2023/07/07 13:28:24;;;;;;;9.32;5.63;;;;;;;;;;5012318;28;20034;-85
2023/07/07 13:30:53;;;;;;;8.77;5.63;;;;;;;;;;5015442;28;20041;-85
2023/07/07 13:33:20;;;;;;;10.48;5.68;;;;;;;;;;4997075;28;20038;-84
2023/07/07 13:35:51;;;;;;;8.02;5.57;;;;;;;;;;5005524;28;20041;-83
2023/07/07 13:38:19;;;;;;;7.93;5.47;;;;;;;;;;5008019;28;20034;-84
2023/07/07 13:40:46;;;;;;;9.07;5.75;;;;;;;;;;5012800;28;20030;-84
2023/07/07 13:43:36;;;;;;;10.77;5.95;;;;;;;;;;5010496;28;20045;-84
2023/07/07 13:46:10;;;;;;;8.65;5.82;;;;;;;;;;5010038;28;20029;-84
2023/07/07 13:48:41;;;;;;;7.75;5.65;;;;;;;;;;5007732;28;20026;-84
2023/07/07 13:51:24;;;;;;;9.05;5.88;;;;;;;;;;5006134;28;20037;-84
2023/07/07 13:53:50;;;;;;;;;;;;;;;;;;4991984;28;20046;-83
2023/07/07 13:56:15;;;;;;;8.65;5.90;;;;;;;;;;5012045;28;19960;-84
2023/07/07 13:58:47;;;;;;;8.15;6.07;;;;;;;;;;4995511;28;20487;-85
2023/07/07 14:01:34;;;;;;;8.35;6.05;;;;;;;;;;5007324;28;20030;-84
2023/07/07 14:04:02;;;;;;;11.95;6.05;;;;;;;;;;5010764;28;20049;-84
2023/07/07 14:06:27;;;;;;;7.50;5.70;;;;;;;;;;5012136;28;20515;-84
2023/07/07 14:08:53;;;;;;;8.63;6.18;;;;;;;;;;5001166;28;20046;-84
2023/07/07 14:11:25;;;;;;;8.85;6.00;;;;;;;;;;4997196;28;20038;-86
2023/07/07 14:13:53;;;;;;;11.98;6.75;;;;;;;;;;5012688;28;20038;-85
2023/07/07 14:16:23;;;;;;;8.68;6.22;;;;;;;;;;5011515;28;20042;-85
2023/07/07 14:19:03;;;;;;;10.68;6.28;;;;;;;;;;5014772;28;20065;-85
2023/07/07 14:21:30;;;;;;;10.43;6.55;;;;;;;;;;5006140;28;20060;-84
2023/07/07 14:23:57;;;;;;;12.52;6.57;;;;;;;;;;4999369;28;20038;-84
2023/07/07 14:26:23;;;;;;;9.85;6.60;;;;;;;;;;4998308;28;20042;-85
2023/07/07 14:28:51;;;;;;;9.30;6.90;;;;;;;;;;5017945;28;20068;-87
2023/07/07 14:31:16;;;;;;;10.85;7.53;;;;;;;;;;4994462;28;20038;-85
2023/07/07 14:33:44;;;;;;;10.40;6.85;;;;;;;;;;5009187;28;20498;-83
2023/07/07 14:36:21;;;;;;;10.63;7.05;;;;;;;;;;4995570;28;20436;-84
2023/07/07 14:38:58;;;;;;;11.60;6.97;;;;;;;;;;5005173;28;20412;-84
2023/07/07 14:41:25;;;;;;;9.63;6.97;;;;;;;;;;4988240;28;20689;-86
2023/07/07 14:43:51;;;;;;;9.70;6.65;;;;;;;;;;5010223;28;20057;-86
2023/07/07 14:46:29;;;;;;;9.77;6.80;;;;;;;;;;4994076;28;20042;-85
2023/07/07 14:48:57;;;;;;;11.05;7.00;;;;;;;;;;4979761;28;20042;-83
2023/07/07 14:51:33;;;;;;;11.90;7.15;;;;;;;;;;5006331;28;20030;-85
2023/07/07 14:54:01;;;;;;;10.60;6.88;;;;;;;;;;5000913;28;20031;-84
2023/07/07 14:56:33;;;;;;;10.13;6.53;;;;;;;;;;4986545;28;20396;-83
2023/07/07 14:59:02;;;;;;;10.10;7.03;;;;;;;;;;5007695;28;20042;-85
2023/07/07 15:01:30;;;;;;;10.80;6.85;;;;;;;;;;5010880;28;20029;-84
2023/07/07 15:03:58;;;;;;;11.05;7.05;;;;;;;;;;5008664;28;20046;-84